Terminal Aerodrome Forecast
Issued by NWS Cleveland, OH

Home | Current Version | Previous Version | Graphics & Text | Print | Product List | Glossary On
Versions: 1 2 3 4 5 6 7 8 9 10 11 12 13 14 15 16 17 18
000
FTUS41 KCLE 070500
TAFCAK
TAF
KCAK 070527Z 0706/0806 21010KT P6SM SCT045 BKN250
     FM071400 22014G22KT P6SM BKN045
     FM071800 23015G25KT P6SM VCTS BKN045CB
     FM080100 23009KT P6SM BKN045
     FM080500 22007KT 6SM BR SCT040 BKN150=

USA.gov is the U.S. government's official web portal to all federal, state and local government web resources and services.